New Richmond, WI

09:34 PM CDT del 23 Agosto 2016 (GMT -0500)
Country View Ridge | | Change Station

Alt. 971 ft 45.10 °N, 92.60 °W | Updated 4 seconds ago

Coperto
Coperto
70.9 °F
Sembra 77 °F
N
2.9
Vento Variabile Vento da SE
Gusts 4.9 mph

Oggi
Massima -- | Minima -- °F
--% Possibilità di precip.
Ieri
Massima -- | Minima -- °F
Precip. -- in
Pressione 29.91 in
Visibilità 10.0 miglia
Nuvole Nubi sparse 12000 ft
Indice di calore 77 °F
Punto di rugiada 45 °F
Umidità 39%
Piovosità 0.00 in
Spessore del manto nevoso Non disponibile.
6:21 AM 8:02 PM
Gobba a levante, 62% visible
METAR KRNH 240215Z AUTO 16005KT 10SM -DZ SCT120 21/17 A2991 RMK AO2 T02100172
Pressione 29.91 in
Visibilità 10.0 miglia
Nuvole Nubi sparse 12000 ft
Indice di calore 77 °F
Punto di rugiada 45 °F
Umidità 39%
Piovosità 0.00 in
Spessore del manto nevoso Non disponibile.
6:21 AM 8:02 PM
Gobba a levante, 62% visible
METAR KRNH 240215Z AUTO 16005KT 10SM -DZ SCT120 21/17 A2991 RMK AO2 T02100172

10-Day Weather Forecast

Almanac

Astronomia

Aug. 23, 2016 Alba Tramonto
Ora attuale
Crepuscolo civile
Crepuscolo nautico
Crepuscolo astronomico
Luna
Estensione della luce visibile
Lunghezza del giorno
Tomorrow will be .
, % of the Moon is Illuminated

Gli estremi di oggi

State Highs State Lows

Community

WunderPhotos

Upload Photos

1,934,528 foto caricate!

WunderBlog® & News

Nearby

Qualità dell'aria

  Qualità dell'aria Indice AQ Inquinante
Not available.

Profondità neve

Stazione Profondità Altitudine

Attività sismica

Città  Distanza Mag. Data & Ora
Minimo Magnitudo Mostrato è 2.5.

Temperature delle acque costiere

Località Temperatura

Stations

Stazioni meteo nelle vicinanze

Ubicazione della stazione Temp. Raffreddamento del vento Punto di rugiada Umidità Vento Precip. Alt. Aggiornato Tipo
                   

Watches & Warnings

There are currently no watches in effect.